Anchorville, MI

8:48 AM EDT on July 01, 2015 (GMT -0400)
Swan Creek | | Change Station
CLOSE
Current Station
Personal Weather Station
Location: Michigan, MI
Elevation: 584 ft
Nearby Weather Stations

Elev 584 ft 42.68 °N, 82.65 °W | Updated 14 minutes ago

Overcast
Overcast
61.5 °F
Feels Like 61.5 °F
N
2.0
Wind Variable Wind from WNW
Gusts 4.0 mph

Today
High -- | Low -- °F
--% Chance of Precip.
Yesterday
High -- | Low -- °F
Precip. -- in
5:56 AM 9:12 PM
Full, 100% visible
Pressure 29.86 in
Visibility 6.0 miles
Clouds Mostly Cloudy 5000 ft
Dew Point 60 °F
Humidity 94%
Rainfall 0.00 in
Snow Depth Not available.
UV 1 out of 12
Pollen 3.10 out of 12
Air Quality Not available.
Flu Activity Not available.
METAR KMTC 011155Z 33005KT 6SM BR BKN050 17/15 A2984 RMK SLP109 70076 T01730154 10174 20154 52017

More Conditions Fewer Conditions

Pressure 29.86 in
Visibility 6.0 miles
Clouds Mostly Cloudy 5000 ft
Dew Point 60 °F
Humidity 94%
Rainfall 0.00 in
Snow Depth Not available.
UV 1 out of 12
Pollen 3.10 out of 12
Air Quality Not available.
Flu Activity Not available.
METAR KMTC 011155Z 33005KT 6SM BR BKN050 17/15 A2984 RMK SLP109 70076 T01730154 10174 20154 52017

More Conditions Fewer Conditions

10-Day Weather Forecast

×

Almanac

Astronomy

Jul. 01, 2015 Rise Set
Actual Time
Civil Twilight
Nautical Twilight
Astronomical Twilight
Moon
Length of Visible Light
Length of Day
Tomorrow will be .
, % of the Moon is Illuminated

Today's Extremes

State Highs State Lows

Community

WunderPhotos

Upload Photos

1,834,187 photos uploaded!

WunderBlogs® & News

Nearby

Air Quality

  Air Quality AQ Index Pollutant
Not available.

Snow Depth

Station Depth Elevation

Earthquake Activity

City Distance Mag. Time & Date
Minimum magnitude displayed is 2.5.

Coastal Water Temperatures

Place Temperature

Stations

Nearby Weather Stations

Station Location Temp. Windchill Dew Point Humidity Wind Precip. Elev Updated Type